createdAt,value
2018-05-09T00:01:15.113Z,14.30
2018-05-09T00:04:25.571Z,14.30
2018-05-09T00:07:36.033Z,14.10
2018-05-09T00:10:46.467Z,14.20
2018-05-09T00:14:02.470Z,14.10
2018-05-09T00:17:13.212Z,14.00
2018-05-09T00:20:23.778Z,13.90
2018-05-09T00:23:34.294Z,13.80
2018-05-09T00:26:45.259Z,13.80
2018-05-09T00:29:55.337Z,13.80
2018-05-09T00:33:05.451Z,13.70
2018-05-09T00:36:15.203Z,13.80
2018-05-09T00:39:25.288Z,13.90
2018-05-09T00:42:35.480Z,13.80
2018-05-09T00:45:45.784Z,13.80
2018-05-09T00:48:55.582Z,13.80
2018-05-09T00:52:05.792Z,13.70
2018-05-09T00:55:16.716Z,13.80
2018-05-09T00:58:26.779Z,13.70
2018-05-09T01:01:37.244Z,13.60
2018-05-09T01:04:47.309Z,13.40
2018-05-09T01:07:57.562Z,13.20
2018-05-09T01:11:07.709Z,13.10
2018-05-09T01:14:18.398Z,13.10
2018-05-09T01:17:28.514Z,13.10
2018-05-09T01:20:39.113Z,13.10
2018-05-09T01:23:49.121Z,13.10
2018-05-09T01:26:59.533Z,13.20
2018-05-09T01:30:09.529Z,13.20
2018-05-09T01:33:19.946Z,13.30
2018-05-09T01:36:30.002Z,13.40
2018-05-09T01:39:40.388Z,13.30
2018-05-09T01:42:51.448Z,13.10
2018-05-09T01:46:01.882Z,13.10
2018-05-09T01:49:12.172Z,13.10
2018-05-09T01:52:22.489Z,13.10
2018-05-09T01:55:33.277Z,13.00
2018-05-09T01:58:43.633Z,12.90
2018-05-09T02:01:53.848Z,12.90
2018-05-09T02:05:03.841Z,12.80
2018-05-09T02:08:14.275Z,12.90
2018-05-09T02:11:24.921Z,12.90
2018-05-09T02:14:35.310Z,12.90
2018-05-09T02:17:45.425Z,12.90
2018-05-09T02:20:56.140Z,12.90
2018-05-09T02:24:07.108Z,12.80
2018-05-09T02:27:17.412Z,12.90
2018-05-09T02:30:28.130Z,12.90
2018-05-09T02:33:38.082Z,12.70
2018-05-09T02:36:48.156Z,12.50
2018-05-09T02:39:58.345Z,12.30
2018-05-09T02:43:08.191Z,12.40
2018-05-09T02:46:18.284Z,12.20
2018-05-09T02:49:28.541Z,12.40
2018-05-09T02:52:38.634Z,12.40
2018-05-09T02:55:49.429Z,12.30
2018-05-09T02:59:00.088Z,12.20
2018-05-09T03:02:10.146Z,12.10
2018-05-09T03:05:20.668Z,12.00
2018-05-09T03:08:30.955Z,12.00
2018-05-09T03:11:40.951Z,12.10
2018-05-09T03:14:51.680Z,12.10
2018-05-09T03:18:01.809Z,12.10
2018-05-09T03:21:12.219Z,12.10
2018-05-09T03:24:22.277Z,12.20
2018-05-09T03:27:32.509Z,12.20
2018-05-09T03:30:43.035Z,12.10
2018-05-09T03:33:53.198Z,11.90
2018-05-09T03:37:03.593Z,11.70
2018-05-09T03:40:14.126Z,11.80
2018-05-09T03:43:24.853Z,11.60
2018-05-09T03:46:34.910Z,11.60
2018-05-09T03:49:45.526Z,11.70
2018-05-09T03:52:55.628Z,11.60
2018-05-09T03:56:07.520Z,11.60
2018-05-09T03:59:17.361Z,11.50
2018-05-09T04:02:44.647Z,11.30
2018-05-09T04:06:05.616Z,11.20
2018-05-09T04:09:27.117Z,11.30
2018-05-09T04:12:37.374Z,11.40
2018-05-09T04:15:47.692Z,11.50
2018-05-09T04:18:57.405Z,11.40
2018-05-09T04:22:07.540Z,11.30
2018-05-09T04:25:17.517Z,11.40
2018-05-09T04:28:27.509Z,11.50
2018-05-09T04:31:38.054Z,11.60
2018-05-09T04:34:48.511Z,11.60
2018-05-09T04:37:58.420Z,11.70
2018-05-09T04:41:08.619Z,11.90
2018-05-09T04:44:18.605Z,11.90
2018-05-09T04:47:28.556Z,11.80
2018-05-09T04:50:39.234Z,11.70
2018-05-09T04:53:49.957Z,11.80
2018-05-09T04:57:00.262Z,11.50
2018-05-09T05:00:10.865Z,11.50
2018-05-09T05:03:21.113Z,11.50
2018-05-09T05:06:31.593Z,11.50
2018-05-09T05:09:41.662Z,11.60
2018-05-09T05:12:51.699Z,11.70
2018-05-09T05:16:02.333Z,11.80
2018-05-09T05:19:12.170Z,11.90
2018-05-09T05:22:22.430Z,12.00
2018-05-09T05:25:32.884Z,12.40
2018-05-09T05:28:43.621Z,12.40
2018-05-09T05:31:54.909Z,12.90
2018-05-09T05:35:04.761Z,12.90
2018-05-09T05:38:15.927Z,13.60
2018-05-09T05:41:26.885Z,13.60
2018-05-09T05:44:37.308Z,14.00
2018-05-09T05:47:47.915Z,14.30
2018-05-09T05:50:58.872Z,14.70
2018-05-09T05:54:10.015Z,14.90
2018-05-09T05:57:21.090Z,14.90
2018-05-09T06:00:30.945Z,14.90
2018-05-09T06:03:41.775Z,14.90
2018-05-09T06:06:52.370Z,14.90
2018-05-09T06:10:02.324Z,15.00
2018-05-09T06:13:12.021Z,15.10
2018-05-09T06:16:22.633Z,15.20
2018-05-09T06:19:32.648Z,15.20
2018-05-09T06:22:43.461Z,15.30
2018-05-09T06:25:53.700Z,15.30
2018-05-09T06:29:04.131Z,15.40
2018-05-09T06:32:14.489Z,15.60
2018-05-09T06:35:24.410Z,15.70
2018-05-09T06:38:34.445Z,15.80
2018-05-09T06:41:44.814Z,16.00
2018-05-09T06:44:55.640Z,16.10
2018-05-09T06:48:07.087Z,16.40
2018-05-09T06:51:17.177Z,16.30
2018-05-09T06:54:26.957Z,16.40
2018-05-09T06:57:38.184Z,16.50
2018-05-09T07:00:48.205Z,16.60
2018-05-09T07:03:58.426Z,16.70
2018-05-09T07:07:08.539Z,16.70
2018-05-09T07:10:18.366Z,16.80
2018-05-09T07:13:28.285Z,16.90
2018-05-09T07:16:38.264Z,17.00
2018-05-09T07:19:48.052Z,17.10
2018-05-09T07:22:58.228Z,17.20
2018-05-09T07:26:08.110Z,17.30
2018-05-09T07:29:18.459Z,17.60
2018-05-09T07:32:29.194Z,17.80
2018-05-09T07:35:40.754Z,18.20
2018-05-09T07:38:50.582Z,18.20
2018-05-09T07:42:01.248Z,18.20
2018-05-09T07:45:11.337Z,18.40
2018-05-09T07:48:21.966Z,18.80
2018-05-09T07:51:32.315Z,18.70
2018-05-09T07:54:42.591Z,18.90
2018-05-09T07:57:53.700Z,19.10
2018-05-09T08:01:04.252Z,19.00
2018-05-09T08:04:14.932Z,19.10
2018-05-09T08:07:25.839Z,19.40
2018-05-09T08:10:36.996Z,19.50
2018-05-09T08:13:46.703Z,19.40
2018-05-09T08:16:57.456Z,19.90
2018-05-09T08:20:08.104Z,19.80
2018-05-09T08:23:18.041Z,20.00
2018-05-09T08:26:27.842Z,20.10
2018-05-09T08:29:37.896Z,20.30
2018-05-09T08:32:47.886Z,20.40
2018-05-09T08:35:57.906Z,20.60
2018-05-09T08:39:08.292Z,20.70
2018-05-09T08:42:18.406Z,20.80
2018-05-09T08:45:28.631Z,21.00
2018-05-09T08:48:38.844Z,21.20
2018-05-09T08:51:49.150Z,21.40
2018-05-09T08:54:58.939Z,21.40
2018-05-09T08:58:09.296Z,21.60
2018-05-09T09:01:19.482Z,21.60
2018-05-09T09:04:29.557Z,21.50
2018-05-09T09:07:40.325Z,21.70
2018-05-09T09:10:50.152Z,21.80
2018-05-09T09:14:00.630Z,21.90
2018-05-09T09:17:10.474Z,22.00
2018-05-09T09:20:20.293Z,22.00
2018-05-09T09:23:30.838Z,22.20
2018-05-09T09:26:41.125Z,22.10
2018-05-09T09:29:50.614Z,22.00
2018-05-09T09:33:00.511Z,21.90
2018-05-09T09:36:10.897Z,21.90
2018-05-09T09:39:21.549Z,22.00
2018-05-09T09:42:32.144Z,22.10
2018-05-09T09:45:42.489Z,22.10
2018-05-09T09:48:53.068Z,22.30
2018-05-09T09:52:03.563Z,22.40
2018-05-09T09:55:13.633Z,22.60
2018-05-09T09:58:23.942Z,22.70
2018-05-09T10:01:34.264Z,22.60
2018-05-09T10:04:44.435Z,22.60
2018-05-09T10:07:54.288Z,22.60
2018-05-09T10:11:04.208Z,22.40
2018-05-09T10:14:14.189Z,22.40
2018-05-09T10:17:24.777Z,22.60
2018-05-09T10:20:35.236Z,22.60
2018-05-09T10:23:45.521Z,22.60
2018-05-09T10:26:56.382Z,22.70
2018-05-09T10:30:06.393Z,22.70
2018-05-09T10:33:16.312Z,23.00
2018-05-09T10:36:27.099Z,22.70
2018-05-09T10:39:36.581Z,22.60
2018-05-09T10:42:46.873Z,22.80
2018-05-09T10:45:56.534Z,22.80
2018-05-09T10:49:06.941Z,22.90
2018-05-09T10:52:17.244Z,23.00
2018-05-09T10:55:27.320Z,22.90
2018-05-09T10:58:37.864Z,22.70
2018-05-09T11:01:48.031Z,22.70
2018-05-09T11:04:58.257Z,22.70
2018-05-09T11:08:08.859Z,22.80
2018-05-09T11:11:18.288Z,22.80
2018-05-09T11:14:28.143Z,22.80
2018-05-09T11:17:38.254Z,23.20
2018-05-09T11:20:48.390Z,23.10
2018-05-09T11:23:57.936Z,23.10
2018-05-09T11:27:07.626Z,23.00
2018-05-09T11:30:17.326Z,23.00
2018-05-09T11:33:27.631Z,23.10
2018-05-09T11:36:37.802Z,23.10
2018-05-09T11:39:47.992Z,22.80
2018-05-09T11:42:58.220Z,23.30
2018-05-09T11:46:08.340Z,23.30
2018-05-09T11:49:18.218Z,23.40
2018-05-09T11:52:29.109Z,23.70
2018-05-09T11:55:38.556Z,23.70
2018-05-09T11:58:48.644Z,23.50
2018-05-09T12:01:57.917Z,23.70
2018-05-09T12:05:08.053Z,23.90
2018-05-09T12:08:18.024Z,24.20
2018-05-09T12:11:27.938Z,24.20
2018-05-09T12:14:38.016Z,24.00
2018-05-09T12:17:48.111Z,24.10
2018-05-09T12:20:58.009Z,24.20
2018-05-09T12:24:08.755Z,24.50
2018-05-09T12:27:18.441Z,24.50
2018-05-09T12:30:28.627Z,24.80
2018-05-09T12:33:38.941Z,24.80
2018-05-09T12:36:48.664Z,24.80
2018-05-09T12:39:59.185Z,24.90
2018-05-09T12:43:09.724Z,24.90
2018-05-09T12:46:19.273Z,25.20
2018-05-09T12:49:29.608Z,25.40
2018-05-09T12:52:39.562Z,25.30
2018-05-09T12:55:49.521Z,25.60
2018-05-09T12:59:00.221Z,25.70
2018-05-09T13:02:09.830Z,25.70
2018-05-09T13:05:19.606Z,25.60
2018-05-09T13:08:29.398Z,25.70
2018-05-09T13:11:39.598Z,25.90
2018-05-09T13:14:49.093Z,26.10
2018-05-09T13:17:58.929Z,26.00
2018-05-09T13:21:08.901Z,26.10
2018-05-09T13:24:19.024Z,26.10
2018-05-09T13:27:28.886Z,26.00
2018-05-09T13:30:39.152Z,25.70
2018-05-09T13:33:48.865Z,25.40
2018-05-09T13:36:59.992Z,25.40
2018-05-09T13:40:10.482Z,25.20
2018-05-09T13:43:20.794Z,24.80
2018-05-09T13:46:31.167Z,24.80
2018-05-09T13:49:40.727Z,25.20
2018-05-09T13:52:51.992Z,25.40
2018-05-09T13:56:02.876Z,25.30
2018-05-09T13:59:14.389Z,25.70
2018-05-09T14:02:24.565Z,25.70
2018-05-09T14:05:34.448Z,25.90
2018-05-09T14:08:45.039Z,25.70
2018-05-09T14:11:55.213Z,25.70
2018-05-09T14:15:05.679Z,25.60
2018-05-09T14:18:17.280Z,25.70
2018-05-09T14:21:27.406Z,25.60
2018-05-09T14:24:38.343Z,25.70
2018-05-09T14:27:48.484Z,25.50
2018-05-09T14:30:59.684Z,25.60
2018-05-09T14:34:10.044Z,25.60
2018-05-09T14:37:20.441Z,25.60
2018-05-09T14:40:31.252Z,25.60
2018-05-09T14:43:41.403Z,25.60
2018-05-09T14:46:51.529Z,25.60
2018-05-09T14:50:01.517Z,25.70
2018-05-09T14:53:12.656Z,25.70
2018-05-09T14:56:22.815Z,25.70
2018-05-09T14:59:33.271Z,25.50
2018-05-09T15:02:42.955Z,25.60
2018-05-09T15:05:52.694Z,25.50
2018-05-09T15:09:02.445Z,25.30
2018-05-09T15:12:12.697Z,25.40
2018-05-09T15:15:23.139Z,25.00
2018-05-09T15:18:34.277Z,24.80
2018-05-09T15:21:44.422Z,24.70
2018-05-09T15:24:54.760Z,24.60
2018-05-09T15:28:04.790Z,24.50
2018-05-09T15:31:15.281Z,24.30
2018-05-09T15:34:25.369Z,24.30
2018-05-09T15:37:35.597Z,24.30
2018-05-09T15:40:46.025Z,24.30
2018-05-09T15:43:56.069Z,24.10
2018-05-09T15:47:06.768Z,24.10
2018-05-09T15:50:16.793Z,24.00
2018-05-09T15:53:27.507Z,23.90
2018-05-09T15:56:37.560Z,23.90
2018-05-09T15:59:47.937Z,23.90
2018-05-09T16:02:57.836Z,23.80
2018-05-09T16:06:07.989Z,23.70
2018-05-09T16:09:17.757Z,23.70
2018-05-09T16:12:28.304Z,23.50
2018-05-09T16:15:38.047Z,23.40
2018-05-09T16:18:48.128Z,23.30
2018-05-09T16:21:58.448Z,23.20
2018-05-09T16:25:08.749Z,23.10
2018-05-09T16:28:18.272Z,23.10
2018-05-09T16:31:28.721Z,23.00
2018-05-09T16:34:38.929Z,23.10
2018-05-09T16:37:49.068Z,23.10
2018-05-09T16:40:59.443Z,23.20
2018-05-09T16:44:09.748Z,23.10
2018-05-09T16:47:19.480Z,23.10
2018-05-09T16:50:29.127Z,23.10
2018-05-09T16:53:38.960Z,23.00
2018-05-09T16:56:49.180Z,23.00
2018-05-09T16:59:59.803Z,23.00
2018-05-09T17:03:09.693Z,23.00
2018-05-09T17:06:20.035Z,22.90
2018-05-09T17:09:32.230Z,22.70
2018-05-09T17:12:42.353Z,22.70
2018-05-09T17:15:52.169Z,22.50
2018-05-09T17:19:03.700Z,22.30
2018-05-09T17:22:28.819Z,22.10
2018-05-09T17:25:39.065Z,22.00
2018-05-09T17:28:49.726Z,22.00
2018-05-09T17:32:00.341Z,21.90
2018-05-09T17:35:10.974Z,21.90
2018-05-09T17:38:21.295Z,21.70
2018-05-09T17:41:30.537Z,21.60
2018-05-09T17:44:41.202Z,21.40
2018-05-09T17:47:50.961Z,21.30
2018-05-09T17:51:01.431Z,21.20
2018-05-09T17:54:11.225Z,21.10
2018-05-09T17:57:21.503Z,21.00
2018-05-09T18:00:32.336Z,20.90
2018-05-09T18:03:43.012Z,20.90
2018-05-09T18:06:53.010Z,20.80
2018-05-09T18:10:03.163Z,20.90
2018-05-09T18:13:13.557Z,20.90
2018-05-09T18:16:23.689Z,20.80
2018-05-09T18:19:34.326Z,20.80
2018-05-09T18:22:44.562Z,20.70
2018-05-09T18:25:55.145Z,20.70
2018-05-09T18:29:06.269Z,20.40
2018-05-09T18:32:17.625Z,20.00
2018-05-09T18:35:31.042Z,20.00
2018-05-09T18:38:43.676Z,19.90
2018-05-09T18:41:54.469Z,19.90
2018-05-09T18:45:04.938Z,19.90
2018-05-09T18:48:15.291Z,19.70
2018-05-09T18:51:25.337Z,19.40
2018-05-09T18:54:36.252Z,19.20
2018-05-09T18:57:46.116Z,19.20
2018-05-09T19:00:56.231Z,19.00
2018-05-09T19:04:06.244Z,18.80
2018-05-09T19:07:16.875Z,18.70
2018-05-09T19:10:27.721Z,18.60
2018-05-09T19:13:38.157Z,18.60
2018-05-09T19:16:48.157Z,18.50
2018-05-09T19:19:58.400Z,18.50
2018-05-09T19:23:08.596Z,18.20
2018-05-09T19:26:19.205Z,18.10
2018-05-09T19:29:29.931Z,18.10
2018-05-09T19:32:40.578Z,18.10
2018-05-09T19:35:51.082Z,18.00
2018-05-09T19:39:01.504Z,18.10
2018-05-09T19:42:11.821Z,18.00
2018-05-09T19:45:22.160Z,18.00
2018-05-09T19:48:32.649Z,17.90
2018-05-09T19:51:43.176Z,17.80
2018-05-09T19:54:53.381Z,17.50
2018-05-09T19:58:03.705Z,17.20
2018-05-09T20:01:15.107Z,17.20
2018-05-09T20:04:27.085Z,16.80
2018-05-09T20:07:38.337Z,16.80
2018-05-09T20:10:49.154Z,16.90
2018-05-09T20:14:00.252Z,16.90
2018-05-09T20:17:11.305Z,16.60
2018-05-09T20:20:21.958Z,16.40
2018-05-09T20:23:33.236Z,16.50
2018-05-09T20:26:43.747Z,16.50
2018-05-09T20:29:53.852Z,16.30
2018-05-09T20:33:04.315Z,16.00
2018-05-09T20:36:14.945Z,15.70
2018-05-09T20:39:25.370Z,15.70
2018-05-09T20:42:36.497Z,15.80
2018-05-09T20:45:47.564Z,15.80
2018-05-09T20:48:57.440Z,15.70
2018-05-09T20:52:08.012Z,15.70
2018-05-09T20:55:29.536Z,15.70
2018-05-09T20:58:40.130Z,15.60
2018-05-09T21:01:51.801Z,15.60
2018-05-09T21:05:01.431Z,15.50
2018-05-09T21:08:11.388Z,15.60
2018-05-09T21:11:21.477Z,15.60
2018-05-09T21:14:31.597Z,15.60
2018-05-09T21:17:41.510Z,15.60
2018-05-09T21:20:51.802Z,15.20
2018-05-09T21:24:02.558Z,15.20
2018-05-09T21:27:13.683Z,15.30
2018-05-09T21:30:23.753Z,15.30
2018-05-09T21:33:34.116Z,15.30
2018-05-09T21:36:44.294Z,15.30
2018-05-09T21:39:54.220Z,15.40
2018-05-09T21:43:04.314Z,15.30
2018-05-09T21:46:14.933Z,15.30
2018-05-09T21:49:25.439Z,15.20
2018-05-09T21:52:38.136Z,15.20
2018-05-09T21:55:48.664Z,15.20
2018-05-09T21:58:58.943Z,15.20
2018-05-09T22:02:09.247Z,15.20
2018-05-09T22:05:19.449Z,14.90
2018-05-09T22:08:29.978Z,14.90
2018-05-09T22:11:40.593Z,15.00
2018-05-09T22:14:50.732Z,15.00
2018-05-09T22:18:01.749Z,15.00
2018-05-09T22:21:11.826Z,15.00
2018-05-09T22:24:23.254Z,14.90
2018-05-09T22:27:33.655Z,14.80
2018-05-09T22:30:44.067Z,14.80
2018-05-09T22:33:54.281Z,14.60
2018-05-09T22:37:03.825Z,14.60
2018-05-09T22:40:14.446Z,14.80
2018-05-09T22:43:24.494Z,14.70
2018-05-09T22:46:34.459Z,14.80
2018-05-09T22:49:44.726Z,14.90
2018-05-09T22:52:54.918Z,14.90
2018-05-09T22:56:04.906Z,15.00
2018-05-09T22:59:16.873Z,15.00
2018-05-09T23:02:26.889Z,15.00
2018-05-09T23:05:37.266Z,15.00
2018-05-09T23:08:47.181Z,14.60
2018-05-09T23:11:57.652Z,14.60
2018-05-09T23:15:08.361Z,14.60
2018-05-09T23:18:18.945Z,14.70
2018-05-09T23:21:28.742Z,14.70
2018-05-09T23:24:39.817Z,14.60
2018-05-09T23:27:50.476Z,14.60
2018-05-09T23:31:00.659Z,14.50
2018-05-09T23:34:11.325Z,14.50
2018-05-09T23:37:21.851Z,14.50
2018-05-09T23:40:32.439Z,14.40
2018-05-09T23:43:42.786Z,14.20
2018-05-09T23:46:52.701Z,14.10
2018-05-09T23:50:02.777Z,14.00
2018-05-09T23:53:13.044Z,13.90
2018-05-09T23:56:22.961Z,13.80
2018-05-09T23:59:33.460Z,13.80
